Time;durP1;ratioP1;P1;durP2;ratioP2;P2;SDS_P1;SDS_P2;PMS_P1;PMS_P2;Temp;Humidity;BMP_temperature;BMP_pressure;BME280_temperature;BME280_humidity;BME280_pressure;Samples;Min_cycle;Max_cycle;Signal;HPM_P1;HPM_P2
2023/06/30 00:00:55;;;;;;;7.10;2.45;;;21.00;99.90;;;;;;5021696;28;20109;-69
2023/06/30 00:03:22;;;;;;;4.97;2.50;;;20.90;99.90;;;;;;5025618;28;20030;-69
2023/06/30 00:05:48;;;;;;;6.18;2.42;;;20.80;99.90;;;;;;5007454;28;20026;-69
2023/06/30 00:08:15;;;;;;;5.10;2.38;;;20.60;99.90;;;;;;5008186;28;20507;-69
2023/06/30 00:10:41;;;;;;;5.10;2.53;;;20.50;99.90;;;;;;5008131;28;20132;-69
2023/06/30 00:13:07;;;;;;;3.78;2.47;;;20.40;99.90;;;;;;5007062;28;20033;-69
2023/06/30 00:15:33;;;;;;;8.57;2.50;;;20.40;99.90;;;;;;4990768;28;20371;-69
2023/06/30 00:17:58;;;;;;;4.47;2.45;;;20.30;99.90;;;;;;5010524;28;20561;-69
2023/06/30 00:20:24;;;;;;;6.93;3.00;;;20.40;99.90;;;;;;5009553;28;20034;-69
2023/06/30 00:22:51;;;;;;;8.55;2.25;;;20.40;99.90;;;;;;5008945;28;20026;-69
2023/06/30 00:25:18;;;;;;;4.68;2.83;;;20.50;99.90;;;;;;5009561;28;20033;-69
2023/06/30 00:27:43;;;;;;;4.32;2.22;;;20.30;99.90;;;;;;5009589;28;20393;-69
2023/06/30 00:30:09;;;;;;;4.50;2.63;;;20.40;99.90;;;;;;5010248;28;20041;-69
2023/06/30 00:32:35;;;;;;;4.80;2.42;;;20.50;99.90;;;;;;5006534;28;20026;-69
2023/06/30 00:35:01;;;;;;;5.55;2.00;;;20.40;99.90;;;;;;5012489;28;20033;-69
2023/06/30 00:37:27;;;;;;;3.78;2.55;;;20.40;99.90;;;;;;5028344;28;20544;-68
2023/06/30 00:39:52;;;;;;;3.45;2.15;;;20.40;99.90;;;;;;5013416;28;20077;-68
2023/06/30 00:42:18;;;;;;;3.92;2.15;;;20.30;99.90;;;;;;5007706;28;20040;-68
2023/06/30 00:44:44;;;;;;;4.45;2.25;;;20.40;99.90;;;;;;5013521;28;20124;-69
2023/06/30 00:47:10;;;;;;;6.35;2.55;;;20.40;99.90;;;;;;5012876;28;20034;-69
2023/06/30 00:49:36;;;;;;;6.25;2.20;;;20.40;99.90;;;;;;5013384;28;20045;-68
2023/06/30 00:52:03;;;;;;;4.43;2.33;;;20.40;99.90;;;;;;5012933;28;20026;-68
2023/06/30 00:54:29;;;;;;;3.95;2.10;;;20.40;99.90;;;;;;5012048;28;20075;-68
2023/06/30 00:56:58;;;;;;;4.60;2.33;;;20.50;99.90;;;;;;5007650;28;20500;-68
2023/06/30 00:59:23;;;;;;;4.07;2.25;;;20.50;99.90;;;;;;5012190;28;20030;-68
2023/06/30 01:02:09;;;;;;;4.63;2.40;;;20.50;99.90;;;;;;5012503;28;20034;-69
2023/06/30 01:04:51;;;;;;;5.18;2.25;;;20.50;99.90;;;;;;5002180;28;20127;-70
2023/06/30 01:07:49;;;;;;;2.85;1.63;;;20.50;99.90;;;;;;5000858;28;20501;-69
2023/06/30 01:10:19;;;;;;;4.88;2.17;;;20.50;99.90;;;;;;5013022;28;20052;-69
2023/06/30 01:12:45;;;;;;;4.55;1.85;;;20.50;99.90;;;;;;5006186;28;20072;-69
2023/06/30 01:15:13;;;;;;;3.92;2.20;;;20.40;99.90;;;;;;5011577;28;20121;-69
2023/06/30 01:17:51;;;;;;;3.72;1.98;;;20.40;99.90;;;;;;5006657;28;20490;-69
2023/06/30 01:20:19;;;;;;;4.25;2.00;;;20.50;99.90;;;;;;5011371;28;20030;-71
2023/06/30 01:22:59;;;;;;;3.60;2.15;;;20.60;99.90;;;;;;5011013;28;20033;-70
2023/06/30 01:25:29;;;;;;;6.20;2.80;;;20.70;99.90;;;;;;5012409;28;20042;-70
2023/06/30 01:27:56;;;;;;;4.20;2.10;;;20.70;99.90;;;;;;5006402;28;20395;-71
2023/06/30 01:30:23;;;;;;;5.45;2.28;;;20.80;99.90;;;;;;5011043;28;20029;-70
2023/06/30 01:32:54;;;;;;;6.18;2.25;;;20.80;99.90;;;;;;5011307;28;20449;-70
2023/06/30 01:35:24;;;;;;;7.05;2.30;;;20.90;99.90;;;;;;5011254;28;20037;-70
2023/06/30 01:37:50;;;;;;;5.00;2.60;;;21.00;99.90;;;;;;5012227;28;20040;-70
2023/06/30 01:40:16;;;;;;;6.32;2.47;;;21.10;99.90;;;;;;5010886;28;20076;-70
2023/06/30 01:42:43;;;;;;;4.82;2.67;;;21.10;99.90;;;;;;5011497;28;20033;-70
2023/06/30 01:45:11;;;;;;;8.45;3.30;;;21.00;99.90;;;;;;5011493;28;20608;-70
2023/06/30 01:47:37;;;;;;;6.07;2.63;;;21.10;99.90;;;;;;5010502;28;20076;-70
2023/06/30 01:50:03;;;;;;;4.25;2.55;;;21.20;99.90;;;;;;5010869;28;20081;-70
2023/06/30 01:52:30;;;;;;;4.57;2.50;;;21.30;99.90;;;;;;4989111;28;20128;-70
2023/06/30 01:54:56;;;;;;;3.72;2.30;;;21.50;99.90;;;;;;5012220;28;20121;-70
2023/06/30 01:57:21;;;;;;;5.85;2.50;;;21.50;99.90;;;;;;5006180;28;20025;-70
2023/06/30 01:59:47;;;;;;;7.72;2.15;;;21.60;99.90;;;;;;5010561;28;20053;-70
2023/06/30 02:02:13;;;;;;;5.10;2.83;;;21.60;99.90;;;;;;5006193;28;20063;-70
2023/06/30 02:04:38;;;;;;;4.53;3.13;;;21.70;99.90;;;;;;5011879;28;20121;-70
2023/06/30 02:07:04;;;;;;;5.03;2.97;;;21.80;99.90;;;;;;5021360;28;20044;-70
2023/06/30 02:09:30;;;;;;;4.38;2.10;;;21.80;99.90;;;;;;5011668;28;20029;-70
2023/06/30 02:11:56;;;;;;;5.70;2.30;;;21.80;99.90;;;;;;5011310;28;20033;-70
2023/06/30 02:14:22;;;;;;;6.25;2.88;;;21.90;99.90;;;;;;5011568;28;20100;-70
2023/06/30 02:16:48;;;;;;;6.00;3.17;;;21.90;99.90;;;;;;5011025;28;20030;-69
2023/06/30 02:19:14;;;;;;;4.78;2.90;;;21.70;99.90;;;;;;5011415;28;20034;-70
2023/06/30 02:21:40;;;;;;;5.20;2.63;;;21.60;99.90;;;;;;5011225;28;20486;-69
2023/06/30 02:24:07;;;;;;;4.57;2.58;;;21.50;99.90;;;;;;5011319;28;20033;-69
2023/06/30 02:26:33;;;;;;;3.97;2.65;;;21.40;99.90;;;;;;4996125;28;20061;-69
2023/06/30 02:28:59;;;;;;;5.13;2.60;;;21.30;99.90;;;;;;5011759;28;20133;-69
2023/06/30 02:31:25;;;;;;;6.63;2.80;;;21.20;99.90;;;;;;5005440;28;20023;-70
2023/06/30 02:33:52;;;;;;;8.38;2.95;;;21.20;99.90;;;;;;5009951;28;20030;-70
2023/06/30 02:36:19;;;;;;;5.70;2.75;;;21.20;99.90;;;;;;5007871;28;20019;-69
2023/06/30 02:38:44;;;;;;;5.10;3.00;;;21.20;99.90;;;;;;5011527;28;20026;-70
2023/06/30 02:41:10;;;;;;;7.15;2.83;;;20.90;99.90;;;;;;5010729;28;20037;-70
2023/06/30 02:43:36;;;;;;;3.45;2.25;;;20.90;99.90;;;;;;5011289;28;20061;-70
2023/06/30 02:46:01;;;;;;;8.77;2.60;;;20.90;99.90;;;;;;5011001;28;20030;-70
2023/06/30 02:48:27;;;;;;;5.75;2.90;;;20.80;99.90;;;;;;5010825;28;20029;-70
2023/06/30 02:50:53;;;;;;;5.03;2.63;;;20.70;99.90;;;;;;5006063;28;20040;-69
2023/06/30 02:53:19;;;;;;;6.50;3.35;;;20.70;99.90;;;;;;5008260;28;20394;-69
2023/06/30 02:55:44;;;;;;;6.03;2.83;;;20.50;99.90;;;;;;5007558;28;20112;-70
2023/06/30 02:58:10;;;;;;;4.57;2.58;;;20.50;99.90;;;;;;5007967;28;20105;-70
2023/06/30 03:00:36;;;;;;;6.97;2.58;;;20.60;99.90;;;;;;5010199;28;20030;-69
2023/06/30 03:03:04;;;;;;;4.88;2.90;;;20.60;99.90;;;;;;5010902;28;20041;-69
2023/06/30 03:05:30;;;;;;;6.05;2.80;;;20.50;99.90;;;;;;5009994;28;20037;-70
2023/06/30 03:07:55;;;;;;;5.00;2.75;;;20.20;99.90;;;;;;5004738;28;20397;-69
2023/06/30 03:10:21;;;;;;;5.63;3.28;;;20.30;99.90;;;;;;5010481;28;20041;-69
2023/06/30 03:12:47;;;;;;;6.30;3.13;;;20.30;99.90;;;;;;5025740;28;20029;-70
2023/06/30 03:15:12;;;;;;;4.32;2.80;;;20.40;99.90;;;;;;5010945;28;20042;-69
2023/06/30 03:17:38;;;;;;;5.55;2.85;;;20.40;99.90;;;;;;5010253;28;20037;-69
2023/06/30 03:20:11;;;;;;;4.88;2.55;;;20.40;99.90;;;;;;5010514;28;20041;-70
2023/06/30 03:22:41;;;;;;;5.30;2.35;;;20.30;99.90;;;;;;5009464;28;20045;-71
2023/06/30 03:25:08;;;;;;;6.72;2.38;;;20.30;99.90;;;;;;5010908;28;20033;-70
2023/06/30 03:27:34;;;;;;;4.82;2.60;;;20.20;99.90;;;;;;5010292;28;20405;-70
2023/06/30 03:30:05;;;;;;;4.97;2.55;;;20.00;99.90;;;;;;5010457;28;20037;-70
2023/06/30 03:32:33;;;;;;;6.43;3.10;;;20.10;99.90;;;;;;5009142;28;20037;-70
2023/06/30 03:35:03;;;;;;;6.85;3.00;;;20.20;99.90;;;;;;5010804;28;20033;-70
2023/06/30 03:37:30;;;;;;;5.30;2.63;;;20.20;99.90;;;;;;5008929;28;20045;-70
2023/06/30 03:39:56;;;;;;;6.25;3.65;;;20.30;99.90;;;;;;5010328;28;20072;-70
2023/06/30 03:42:22;;;;;;;6.90;3.65;;;20.30;99.90;;;;;;4987289;28;20033;-69
2023/06/30 03:44:48;;;;;;;6.43;3.67;;;20.30;99.90;;;;;;5010749;28;20493;-69
2023/06/30 03:47:13;;;;;;;6.68;3.47;;;20.30;99.90;;;;;;5010268;28;20477;-70
2023/06/30 03:49:39;;;;;;;6.13;3.58;;;20.40;99.90;;;;;;5010119;28;20038;-69
2023/06/30 03:52:06;;;;;;;5.65;3.25;;;20.40;99.90;;;;;;5004975;28;20503;-70
2023/06/30 03:54:31;;;;;;;8.32;4.05;;;20.40;99.90;;;;;;5009225;28;20033;-70
2023/06/30 03:56:57;;;;;;;6.00;3.38;;;20.20;99.90;;;;;;5009866;28;20549;-70
2023/06/30 03:59:23;;;;;;;7.05;3.20;;;20.10;99.90;;;;;;5025476;28;20026;-71
2023/06/30 04:01:49;;;;;;;5.20;3.28;;;20.10;99.90;;;;;;5010070;28;20029;-70
2023/06/30 04:04:14;;;;;;;6.05;2.72;;;20.20;99.90;;;;;;5010225;28;20156;-69
2023/06/30 04:06:40;;;;;;;7.20;3.70;;;20.30;99.90;;;;;;5013644;28;20498;-70
2023/06/30 04:09:06;;;;;;;7.97;3.35;;;20.40;99.90;;;;;;5012998;28;20030;-70
2023/06/30 04:11:32;;;;;;;6.43;3.13;;;20.50;99.90;;;;;;5012343;28;20049;-70
2023/06/30 04:14:01;;;;;;;6.28;3.42;;;20.60;99.90;;;;;;5013893;28;20508;-70
2023/06/30 04:16:27;;;;;;;5.93;3.00;;;20.60;99.90;;;;;;5013679;28;20038;-69
2023/06/30 04:18:53;;;;;;;8.30;3.80;;;20.60;99.90;;;;;;5013962;28;20054;-69
2023/06/30 04:21:19;;;;;;;10.38;3.60;;;20.70;99.90;;;;;;5013405;28;20026;-70
2023/06/30 04:23:45;;;;;;;6.22;3.15;;;20.70;99.90;;;;;;4996144;28;20034;-70
2023/06/30 04:26:11;;;;;;;9.85;4.65;;;20.60;99.90;;;;;;5009477;28;20343;-69
2023/06/30 04:28:37;;;;;;;6.05;3.20;;;20.70;99.90;;;;;;5012557;28;20037;-70
2023/06/30 04:31:04;;;;;;;7.65;4.28;;;20.70;99.90;;;;;;5012763;28;20088;-68
2023/06/30 04:33:32;;;;;;;10.55;3.90;;;20.90;99.90;;;;;;5013429;28;20022;-70
2023/06/30 04:35:58;;;;;;;10.10;3.88;;;20.70;99.90;;;;;;4992518;28;20033;-70
2023/06/30 04:38:24;;;;;;;5.22;3.03;;;20.80;99.90;;;;;;5012506;28;20088;-70
2023/06/30 04:40:50;;;;;;;6.50;3.72;;;20.60;99.90;;;;;;5012795;28;20034;-70
2023/06/30 04:43:16;;;;;;;7.70;3.13;;;20.40;99.90;;;;;;5013633;28;20030;-70
2023/06/30 04:45:42;;;;;;;6.30;3.38;;;20.40;99.90;;;;;;5027957;28;20100;-69
2023/06/30 04:48:08;;;;;;;9.52;3.60;;;20.60;99.90;;;;;;5012303;28;20390;-70
2023/06/30 04:50:35;;;;;;;8.50;3.63;;;20.60;99.90;;;;;;5012878;28;20030;-70
2023/06/30 04:53:01;;;;;;;10.73;4.07;;;20.50;99.90;;;;;;5012308;28;20036;-71
2023/06/30 04:55:27;;;;;;;9.48;3.80;;;20.40;99.90;;;;;;5007778;28;20128;-68
2023/06/30 04:57:55;;;;;;;7.95;4.35;;;20.30;99.90;;;;;;5011322;28;20105;-53
2023/06/30 05:00:21;;;;;;;10.25;3.40;;;20.30;99.90;;;;;;5021270;28;20038;-52
2023/06/30 05:02:49;;;;;;;7.22;3.45;;;20.20;99.90;;;;;;5010837;28;20504;-52
2023/06/30 05:05:15;;;;;;;5.85;3.40;;;20.20;99.90;;;;;;5020607;28;20033;-52
2023/06/30 05:07:41;;;;;;;7.38;3.53;;;20.20;99.90;;;;;;5011520;28;20083;-53
2023/06/30 05:10:08;;;;;;;10.90;3.42;;;20.20;99.90;;;;;;5009248;28;20060;-51
2023/06/30 05:12:35;;;;;;;8.55;4.40;;;20.20;99.90;;;;;;5011439;28;20029;-52
2023/06/30 05:15:00;;;;;;;7.32;3.78;;;20.20;99.90;;;;;;5003229;28;20076;-54
2023/06/30 05:17:26;;;;;;;8.27;3.30;;;20.20;99.90;;;;;;5008975;28;20101;-53
2023/06/30 05:19:52;;;;;;;8.13;4.05;;;20.30;99.90;;;;;;5010567;28;20473;-54
2023/06/30 05:22:17;;;;;;;8.82;3.22;;;20.30;99.90;;;;;;5009720;28;20021;-52
2023/06/30 05:24:43;;;;;;;10.07;3.50;;;20.30;99.90;;;;;;5008577;28;20034;-52
2023/06/30 05:27:09;;;;;;;8.98;4.40;;;20.40;99.90;;;;;;5011299;28;20076;-53
2023/06/30 05:29:34;;;;;;;7.82;3.50;;;20.30;99.90;;;;;;5011579;28;20028;-54
2023/06/30 05:32:00;;;;;;;9.23;4.22;;;20.30;99.90;;;;;;5010719;28;20398;-55
2023/06/30 05:34:26;;;;;;;10.82;3.88;;;20.30;99.90;;;;;;5011462;28;20040;-52
2023/06/30 05:36:52;;;;;;;8.57;4.50;;;20.40;99.90;;;;;;5012229;28;20029;-56
2023/06/30 05:39:18;;;;;;;7.40;3.83;;;20.50;99.90;;;;;;5011087;28;20482;-55
2023/06/30 05:41:43;;;;;;;10.48;3.95;;;20.60;99.90;;;;;;5011627;28;20040;-54
2023/06/30 05:44:09;;;;;;;8.00;3.60;;;20.90;99.90;;;;;;5005128;28;20038;-54
2023/06/30 05:46:39;;;;;;;7.80;4.40;;;20.90;99.90;;;;;;5011404;28;20058;-54
2023/06/30 05:49:05;;;;;;;10.73;4.35;;;21.00;99.90;;;;;;5009930;28;20041;-54
2023/06/30 05:51:35;;;;;;;12.35;5.10;;;21.20;99.90;;;;;;5023842;28;20030;-54
2023/06/30 05:54:04;;;;;;;10.73;4.37;;;21.20;99.90;;;;;;5002977;28;20032;-54
2023/06/30 05:56:31;;;;;;;8.98;3.78;;;21.50;99.90;;;;;;5010111;28;20025;-53
2023/06/30 05:58:58;;;;;;;7.68;3.83;;;21.70;99.90;;;;;;5003083;28;20641;-57
2023/06/30 06:01:24;;;;;;;7.15;3.75;;;21.80;99.90;;;;;;5004392;28;20033;-57
2023/06/30 06:03:50;;;;;;;7.72;4.65;;;22.00;99.90;;;;;;5011803;28;20088;-56
2023/06/30 06:06:15;;;;;;;7.07;4.38;;;22.20;99.90;;;;;;5011410;28;20441;-54
2023/06/30 06:08:46;;;;;;;8.25;3.67;;;22.30;99.90;;;;;;5011533;28;20030;-55
2023/06/30 06:11:12;;;;;;;12.45;4.47;;;22.40;99.90;;;;;;5011016;28;20501;-53
2023/06/30 06:13:39;;;;;;;15.05;4.57;;;22.40;99.90;;;;;;5011371;28;20549;-53
2023/06/30 06:16:06;;;;;;;10.73;4.43;;;22.50;99.90;;;;;;5011010;28;20022;-55
2023/06/30 06:18:33;;;;;;;11.80;5.07;;;22.70;99.90;;;;;;5011113;28;20029;-53
2023/06/30 06:21:01;;;;;;;14.98;5.25;;;22.70;99.90;;;;;;5006964;28;20068;-54
2023/06/30 06:23:27;;;;;;;10.55;4.78;;;22.50;99.90;;;;;;5009152;28;20103;-54
2023/06/30 06:25:53;;;;;;;12.50;5.28;;;22.70;99.90;;;;;;5009461;28;20053;-53
2023/06/30 06:28:18;;;;;;;13.52;4.18;;;22.90;99.90;;;;;;5010490;28;20033;-54
2023/06/30 06:30:45;;;;;;;9.13;3.83;;;23.10;99.90;;;;;;5009919;28;20486;-55
2023/06/30 06:33:10;;;;;;;8.52;4.10;;;23.10;99.90;;;;;;5006386;28;20026;-54
2023/06/30 06:35:36;;;;;;;7.78;3.80;;;23.10;99.90;;;;;;5010994;28;20036;-54
2023/06/30 06:38:02;;;;;;;12.25;3.42;;;23.30;99.90;;;;;;5009989;28;20103;-54
2023/06/30 06:40:29;;;;;;;10.45;4.63;;;23.40;99.90;;;;;;5007586;28;20034;-53
2023/06/30 06:42:55;;;;;;;11.43;5.03;;;23.60;99.90;;;;;;5010991;28;20111;-54
2023/06/30 06:45:25;;;;;;;10.60;4.85;;;23.50;99.90;;;;;;5024985;28;20037;-56
2023/06/30 06:48:19;;;;;;;11.68;4.82;;;23.30;99.90;;;;;;5011196;28;20045;-57
2023/06/30 06:51:05;;;;;;;10.65;4.22;;;23.50;99.90;;;;;;5008558;28;20041;-57
2023/06/30 06:53:33;;;;;;;12.52;4.75;;;23.80;99.90;;;;;;5009658;28;20045;-55
2023/06/30 06:56:00;;;;;;;8.82;4.82;;;23.70;99.90;;;;;;5012220;28;20033;-55
2023/06/30 06:58:30;;;;;;;7.78;4.35;;;23.80;99.90;;;;;;5010711;28;20502;-56
2023/06/30 07:00:57;;;;;;;7.72;3.75;;;23.90;99.90;;;;;;5015698;28;20024;-54
2023/06/30 07:03:23;;;;;;;17.55;4.97;;;23.90;99.90;;;;;;5009226;28;20061;-54
2023/06/30 07:05:49;;;;;;;15.07;5.13;;;23.90;99.90;;;;;;5001145;28;20030;-56
2023/06/30 07:08:16;;;;;;;9.70;4.65;;;23.70;99.90;;;;;;5009345;28;20109;-56
2023/06/30 07:10:46;;;;;;;14.73;5.35;;;23.80;99.90;;;;;;5008950;28;20757;-55
2023/06/30 07:13:15;;;;;;;11.90;4.80;;;23.90;99.90;;;;;;5006733;28;20034;-55
2023/06/30 07:15:41;;;;;;;15.70;6.15;;;23.80;99.90;;;;;;5010654;28;20544;-56
2023/06/30 07:18:07;;;;;;;12.88;6.45;;;23.80;99.90;;;;;;5010232;28;20193;-54
2023/06/30 07:20:33;;;;;;;16.15;6.63;;;23.50;99.90;;;;;;4990230;28;20406;-55
2023/06/30 07:22:59;;;;;;;16.00;6.55;;;23.30;99.90;;;;;;5007159;28;20556;-53
2023/06/30 07:25:25;;;;;;;14.73;7.00;;;23.10;99.90;;;;;;5010589;28;20033;-54
2023/06/30 07:27:55;;;;;;;13.98;6.70;;;23.00;99.90;;;;;;5009405;28;20092;-52
2023/06/30 07:30:26;;;;;;;19.07;8.23;;;23.10;99.90;;;;;;5009738;28;20042;-53
2023/06/30 07:32:53;;;;;;;14.35;5.85;;;23.30;99.90;;;;;;5007983;28;20036;-55
2023/06/30 07:35:23;;;;;;;18.00;7.18;;;23.30;99.90;;;;;;5023708;28;20517;-54
2023/06/30 07:37:52;;;;;;;16.95;7.32;;;23.50;99.90;;;;;;5009245;28;20034;-54
2023/06/30 07:40:18;;;;;;;21.38;8.07;;;23.50;99.90;;;;;;5011222;28;20477;-55
2023/06/30 07:42:44;;;;;;;16.98;7.18;;;23.60;99.90;;;;;;5013465;28;20091;-54
2023/06/30 07:45:13;;;;;;;21.00;7.63;;;23.40;99.90;;;;;;5013823;28;20034;-56
2023/06/30 07:47:42;;;;;;;21.88;8.48;;;23.20;99.90;;;;;;5012472;28;20134;-53
2023/06/30 07:50:12;;;;;;;20.63;8.70;;;23.40;99.90;;;;;;5029219;28;20034;-54
2023/06/30 07:52:42;;;;;;;21.83;8.80;;;23.60;99.90;;;;;;5013777;28;20069;-51
2023/06/30 07:55:10;;;;;;;20.47;8.63;;;23.70;99.90;;;;;;5014091;28;20041;-53
2023/06/30 07:57:36;;;;;;;18.70;8.38;;;23.40;99.90;;;;;;5013573;28;20033;-51
2023/06/30 08:00:03;;;;;;;21.17;7.72;;;23.60;99.90;;;;;;5013837;28;20492;-53
2023/06/30 08:02:28;;;;;;;21.60;9.02;;;23.60;99.90;;;;;;5013374;28;20029;-56
2023/06/30 08:04:54;;;;;;;23.77;8.80;;;23.30;99.90;;;;;;5014176;28;20131;-49
2023/06/30 08:07:20;;;;;;;21.35;8.73;;;23.30;99.90;;;;;;5013472;28;20409;-55
2023/06/30 08:09:46;;;;;;;23.67;9.88;;;23.40;99.90;;;;;;5012359;28;20041;-55
2023/06/30 08:12:11;;;;;;;28.10;9.93;;;23.20;99.90;;;;;;5013340;28;20029;-55
2023/06/30 08:14:37;;;;;;;26.45;9.40;;;23.20;99.90;;;;;;5013757;28;20065;-56
2023/06/30 08:17:03;;;;;;;27.77;11.98;;;23.20;99.90;;;;;;5013371;28;20256;-52
2023/06/30 08:19:29;;;;;;;28.48;10.75;;;23.20;99.90;;;;;;5012127;28;20025;-49
2023/06/30 08:21:55;;;;;;;27.50;10.20;;;23.00;99.90;;;;;;5011339;28;20026;-53
2023/06/30 08:24:21;;;;;;;31.33;11.75;;;22.80;99.90;;;;;;5013613;28;20049;-53
2023/06/30 08:26:46;;;;;;;25.75;10.43;;;22.60;99.90;;;;;;5011258;28;20042;-53
2023/06/30 08:29:13;;;;;;;20.20;8.88;;;22.60;99.90;;;;;;5013498;28;20037;-53
2023/06/30 08:31:40;;;;;;;21.58;10.30;;;22.60;99.90;;;;;;5010414;28;20041;-54
2023/06/30 08:34:08;;;;;;;23.60;9.00;;;22.80;99.90;;;;;;5011889;28;20037;-53
2023/06/30 08:36:34;;;;;;;21.80;7.85;;;22.80;99.90;;;;;;5012901;28;20026;-54
2023/06/30 08:39:00;;;;;;;26.83;8.50;;;22.80;99.90;;;;;;5011717;28;20389;-53
2023/06/30 08:41:27;;;;;;;15.93;6.82;;;22.80;99.90;;;;;;4996619;28;20038;-54
2023/06/30 08:43:56;;;;;;;8.43;3.83;;;22.70;99.90;;;;;;5013152;28;20030;-52
2023/06/30 08:46:24;;;;;;;6.75;3.25;;;22.50;99.90;;;;;;5010069;28;20034;-54
2023/06/30 08:48:50;;;;;;;8.32;3.10;;;22.00;99.90;;;;;;5011487;28;20032;-54
2023/06/30 08:51:18;;;;;;;6.43;3.47;;;21.70;99.90;;;;;;5011087;28;20125;-50
2023/06/30 08:53:47;;;;;;;5.03;2.92;;;21.50;99.90;;;;;;5011499;28;20584;-53
2023/06/30 08:56:15;;;;;;;24.02;11.60;;;21.40;99.90;;;;;;5013400;28;20101;-52
2023/06/30 08:58:41;;;;;;;7.35;2.40;;;21.70;99.90;;;;;;5011560;28;20065;-53
2023/06/30 09:01:07;;;;;;;460.23;191.85;;;21.60;99.90;;;;;;5012127;28;20112;-51
2023/06/30 09:03:35;;;;;;;4.78;2.13;;;21.40;99.90;;;;;;4987034;28;20610;-54
2023/06/30 09:06:01;;;;;;;6.40;2.50;;;21.10;99.90;;;;;;5011085;28;20037;-53
2023/06/30 09:08:42;;;;;;;4.53;2.03;;;20.90;99.90;;;;;;5011451;28;20021;-54
2023/06/30 09:11:08;;;;;;;;;;;20.90;99.90;;;;;;5010915;28;20271;-53
2023/06/30 09:13:37;;;;;;;4.95;2.03;;;20.90;99.90;;;;;;5011249;28;20408;-54
2023/06/30 09:16:06;;;;;;;5.35;1.67;;;21.00;99.90;;;;;;5010844;28;20049;-54
2023/06/30 09:18:33;;;;;;;3.92;2.17;;;21.00;99.90;;;;;;5010787;28;20018;-54
2023/06/30 09:20:59;;;;;;;3.90;2.10;;;21.20;99.90;;;;;;5011810;28;20029;-52
2023/06/30 09:23:27;;;;;;;4.38;2.25;;;21.40;99.90;;;;;;4994650;28;20025;-49
2023/06/30 09:25:53;;;;;;;5.20;2.50;;;21.60;99.90;;;;;;4994614;28;20045;-55
2023/06/30 09:28:19;;;;;;;3.72;1.80;;;21.60;99.90;;;;;;5012160;28;20482;-53
2023/06/30 09:30:46;;;;;;;3.83;2.00;;;21.40;99.90;;;;;;5011672;28;20038;-49
2023/06/30 09:33:17;;;;;;;3.75;2.10;;;21.30;99.90;;;;;;5012230;28;20113;-56
2023/06/30 09:35:46;;;;;;;5.38;1.83;;;21.20;99.90;;;;;;5012287;28;20038;-51
2023/06/30 09:38:14;;;;;;;3.30;1.77;;;20.90;99.90;;;;;;5011828;28;20092;-53
2023/06/30 09:40:49;;;;;;;4.18;2.03;;;20.60;99.90;;;;;;5011885;28;20034;-52
2023/06/30 09:43:20;;;;;;;2.97;1.55;;;20.50;99.90;;;;;;5011645;28;20030;-56
2023/06/30 09:46:00;;;;;;;3.35;1.52;;;20.40;99.90;;;;;;5010706;28;20143;-55
2023/06/30 09:48:39;;;;;;;3.93;1.70;;;20.30;99.90;;;;;;5009629;28;20407;-55
2023/06/30 09:51:07;;;;;;;3.92;1.45;;;20.20;99.90;;;;;;5011221;28;20296;-71
2023/06/30 09:53:37;;;;;;;8.18;1.98;;;20.10;99.90;;;;;;5002325;28;20029;-75
2023/06/30 09:56:04;;;;;;;2.45;1.48;;;20.40;99.90;;;;;;5011338;28;20030;-76
2023/06/30 09:58:31;;;;;;;2.60;1.45;;;20.50;99.90;;;;;;4994337;28;20065;-76
2023/06/30 10:00:58;;;;;;;2.03;1.25;;;20.70;99.90;;;;;;5010039;28;20026;-77
2023/06/30 10:03:24;;;;;;;4.53;1.90;;;20.80;99.90;;;;;;5009846;28;20485;-74
2023/06/30 10:05:52;;;;;;;5.45;1.75;;;21.40;99.90;;;;;;5010134;28;20033;-75
2023/06/30 10:08:21;;;;;;;4.38;2.03;;;21.70;99.90;;;;;;4992337;28;20025;-76
2023/06/30 10:10:51;;;;;;;3.70;1.63;;;21.70;99.90;;;;;;5009654;28;20040;-74
2023/06/30 10:13:17;;;;;;;3.03;1.50;;;21.90;99.90;;;;;;5011504;28;20030;-55
2023/06/30 10:15:45;;;;;;;2.90;1.45;;;22.10;99.90;;;;;;5009979;28;20034;-54
2023/06/30 10:18:14;;;;;;;2.90;1.60;;;22.30;99.90;;;;;;5008984;28;20060;-54
2023/06/30 10:20:41;;;;;;;4.95;1.80;;;22.40;99.90;;;;;;5009573;28;20084;-54
2023/06/30 10:23:07;;;;;;;5.10;2.33;;;22.80;99.90;;;;;;5009431;28;20036;-54
2023/06/30 10:25:37;;;;;;;4.07;2.17;;;23.00;99.90;;;;;;4993083;28;20426;-55
2023/06/30 10:28:06;;;;;;;3.40;1.67;;;23.00;99.90;;;;;;5009181;28;20060;-54
2023/06/30 10:30:32;;;;;;;3.05;1.63;;;23.20;99.90;;;;;;5010426;28;20037;-52
2023/06/30 10:32:58;;;;;;;5.80;2.13;;;23.00;99.90;;;;;;5009937;28;20045;-63
2023/06/30 10:35:25;;;;;;;4.43;1.98;;;22.60;99.90;;;;;;5008923;28;20030;-52
2023/06/30 10:37:52;;;;;;;1.90;1.27;;;22.40;99.90;;;;;;5006510;28;20045;-56
2023/06/30 10:40:29;;;;;;;3.45;1.73;;;22.10;99.90;;;;;;5008303;28;20553;-56
2023/06/30 10:42:56;;;;;;;3.42;1.50;;;22.00;99.90;;;;;;5009591;28;20085;-54
2023/06/30 10:45:33;;;;;;;3.75;1.80;;;22.00;99.90;;;;;;5010000;28;20030;-53
2023/06/30 10:48:14;;;;;;;3.13;1.45;;;22.10;99.90;;;;;;5006306;28;20069;-54
2023/06/30 10:50:46;;;;;;;;;;;21.90;99.90;;;;;;4989445;28;20034;-54
2023/06/30 10:53:18;;;;;;;3.55;2.15;;;21.70;99.90;;;;;;5006343;28;19913;-50
2023/06/30 10:55:44;;;;;;;4.55;2.20;;;21.70;99.90;;;;;;5020891;28;20034;-50
2023/06/30 10:58:10;;;;;;;3.78;1.75;;;21.70;99.90;;;;;;5009131;28;20030;-45
2023/06/30 11:00:36;;;;;;;3.67;1.42;;;21.90;99.90;;;;;;4988255;23;1071665;-53
2023/06/30 11:03:05;;;;;;;2.67;1.40;;;22.20;99.90;;;;;;5031047;28;20168;-50
2023/06/30 11:05:33;;;;;;;6.72;1.60;;;22.70;99.90;;;;;;5029607;28;20053;-52
2023/06/30 11:08:02;;;;;;;5.47;1.60;;;23.00;99.90;;;;;;5029906;28;20029;-64
2023/06/30 11:10:31;;;;;;;3.13;1.35;;;23.20;99.90;;;;;;5029520;28;20030;-45
2023/06/30 11:12:57;;;;;;;3.13;1.42;;;23.70;99.90;;;;;;5008142;28;20032;-49
2023/06/30 11:15:47;;;;;;;3.63;1.52;;;24.00;99.90;;;;;;5008162;28;20076;-53
2023/06/30 11:18:23;;;;;;;3.47;1.55;;;23.90;99.90;;;;;;4993194;28;20029;-51
2023/06/30 11:21:05;;;;;;;2.10;1.20;;;23.80;99.90;;;;;;5028666;28;20043;-54
2023/06/30 11:23:39;;;;;;;3.88;1.30;;;23.90;99.90;;;;;;5029642;28;20029;-53
2023/06/30 11:26:18;;;;;;;3.63;1.55;;;23.70;99.90;;;;;;5012493;28;20044;-52
2023/06/30 11:28:48;;;;;;;3.60;1.65;;;23.70;99.90;;;;;;5012051;28;20407;-54
2023/06/30 11:31:15;;;;;;;4.53;2.10;;;23.80;99.90;;;;;;5029498;28;20489;-49
2023/06/30 11:33:42;;;;;;;4.15;1.95;;;24.10;99.90;;;;;;5029621;28;20497;-52
2023/06/30 11:36:16;;;;;;;2.88;1.45;;;24.10;99.90;;;;;;5029672;28;20037;-51
2023/06/30 11:38:49;;;;;;;4.38;2.22;;;23.90;99.90;;;;;;5029285;28;20025;-52
2023/06/30 11:41:20;;;;;;;5.93;2.38;;;23.90;99.90;;;;;;5029600;28;20738;-52
2023/06/30 11:43:51;;;;;;;5.00;2.20;;;24.10;99.90;;;;;;5011435;28;20131;-53
2023/06/30 11:46:16;;;;;;;5.03;2.33;;;24.30;99.90;;;;;;5012144;28;20038;-52
2023/06/30 11:48:43;;;;;;;4.53;2.35;;;24.20;99.90;;;;;;5028978;28;20037;-49
2023/06/30 11:51:11;;;;;;;3.05;1.70;;;23.80;99.90;;;;;;5003687;28;20045;-52
2023/06/30 11:53:42;;;;;;;9.68;2.70;;;23.40;99.90;;;;;;5021540;28;20039;-52
2023/06/30 11:56:08;;;;;;;5.47;2.40;;;23.30;99.90;;;;;;5019610;28;20025;-54
2023/06/30 11:58:34;;;;;;;5.50;2.53;;;23.20;99.90;;;;;;5012812;28;20387;-54
2023/06/30 12:01:03;;;;;;;3.97;2.15;;;23.20;99.90;;;;;;5033258;28;20366;-51
2023/06/30 12:03:29;;;;;;;5.03;2.28;;;22.90;99.90;;;;;;4992132;28;20038;-53
2023/06/30 12:05:56;;;;;;;4.88;2.50;;;23.00;99.90;;;;;;5011617;28;20029;-53
2023/06/30 12:08:25;;;;;;;7.55;2.75;;;23.30;99.90;;;;;;5029579;28;20045;-53
2023/06/30 12:10:51;;;;;;;4.28;2.25;;;23.70;99.90;;;;;;5028807;28;20445;-54
2023/06/30 12:13:17;;;;;;;4.53;2.20;;;23.90;99.90;;;;;;5011326;28;20111;-49
2023/06/30 12:15:43;;;;;;;4.55;2.47;;;24.40;99.90;;;;;;5024600;28;20041;-55
2023/06/30 12:18:09;;;;;;;5.13;2.75;;;24.60;99.90;;;;;;5029103;28;20059;-52
2023/06/30 12:20:40;;;;;;;5.88;3.03;;;25.30;99.30;;;;;;5028486;28;20639;-53
2023/06/30 12:23:07;;;;;;;7.57;2.50;;;25.50;98.80;;;;;;5029685;28;20037;-53
2023/06/30 12:25:35;;;;;;;6.43;3.30;;;25.70;98.50;;;;;;5008955;28;20036;-54
2023/06/30 12:28:05;;;;;;;6.95;3.38;;;25.90;98.00;;;;;;5015490;28;20060;-55
2023/06/30 12:30:31;;;;;;;5.63;2.88;;;26.00;97.80;;;;;;5014127;28;20061;-49
2023/06/30 12:33:00;;;;;;;8.90;3.38;;;25.70;98.10;;;;;;5032955;28;20117;-54
2023/06/30 12:35:37;;;;;;;6.35;3.35;;;25.30;98.60;;;;;;5032315;28;20060;-53
2023/06/30 12:38:09;;;;;;;6.05;3.22;;;25.60;97.80;;;;;;5032594;28;20124;-54
2023/06/30 12:40:35;;;;;;;6.35;2.83;;;26.10;97.20;;;;;;5027574;28;20499;-53
2023/06/30 12:43:01;;;;;;;7.70;3.70;;;26.20;97.00;;;;;;5014657;28;20072;-55
2023/06/30 12:45:27;;;;;;;5.10;2.50;;;26.30;96.90;;;;;;5030851;28;20053;-53
2023/06/30 12:47:53;;;;;;;5.65;2.55;;;26.40;96.70;;;;;;4998608;28;20116;-51